Aviation Digital Data Service (ADDS)

Output produced by METARs form (1657 UTC 16 June 2019)
found at http://www.aviationweather.gov/metar/data/
 
VYMD 161630Z 18008G17KT 6000 BKN020 FEW025CB 28/23 Q1002 NOSIG
TAF VYMD 161100Z 1612/1712 17010KT 6000 BKN020 FEW025CB 
     TEMPO 1612/1618 14012G25KT 6000 BKN020 FEW025CB FEW110
       
VYYY 161630Z 25003KT 6000 BKN014 FEW020CB OVC090 26/25 Q1005 NOSIG
TAF VYYY 160500Z 1606/1706 18010KT 7000 BKN018 FEW020CB OVC100 
     TEMPO 1606/1612 23008G18KT 3000 +RA